Time;durP1;ratioP1;P1;durP2;ratioP2;P2;SDS_P1;SDS_P2;PMS_P1;PMS_P2;Temp;Humidity;BMP_temperature;BMP_pressure;BME280_temperature;BME280_humidity;BME280_pressure;Samples;Min_cycle;Max_cycle;Signal;HPM_P1;HPM_P2
2022/04/27 00:06:30;;;;;;;1.00;0.30;;;4.20;99.90;;;;;;21211087;28;20095;-59
2022/04/27 00:16:33;;;;;;;0.40;0.20;;;4.20;99.90;;;;;;21218914;27;20035;-59
2022/04/27 00:26:36;;;;;;;1.30;0.28;;;3.70;99.90;;;;;;21224818;27;20495;-59
2022/04/27 00:36:39;;;;;;;0.45;0.20;;;3.80;99.90;;;;;;21224089;27;20035;-48
2022/04/27 00:46:41;;;;;;;2.85;0.40;;;3.90;99.90;;;;;;21223459;27;20046;-48
2022/04/27 00:56:44;;;;;;;0.50;0.28;;;3.60;99.90;;;;;;21222435;27;20023;-51
2022/04/27 01:06:47;;;;;;;0.45;0.28;;;3.50;99.90;;;;;;21221570;27;20038;-53
2022/04/27 01:16:54;;;;;;;3.22;0.35;;;3.40;99.90;;;;;;21220708;27;20096;-52
2022/04/27 01:26:57;;;;;;;1.85;0.30;;;3.60;99.90;;;;;;21220141;27;20552;-49
2022/04/27 01:47:22;;;;;;;0.40;0.30;;;3.50;99.90;;;;;;21133428;28;20500;-50
2022/04/27 01:57:26;;;;;;;0.35;0.30;;;3.70;99.90;;;;;;21149607;28;20356;-51
2022/04/27 02:07:29;;;;;;;1.40;0.40;;;3.70;99.90;;;;;;21149286;28;20268;-49
2022/04/27 02:17:31;;;;;;;0.73;0.30;;;3.60;99.90;;;;;;21199048;27;20031;-49
2022/04/27 02:27:33;;;;;;;0.43;0.20;;;3.40;99.90;;;;;;21198714;27;20102;-52
2022/04/27 02:37:37;;;;;;;2.40;0.28;;;3.40;99.90;;;;;;21197153;27;20056;-53
2022/04/27 02:47:40;;;;;;;0.32;0.22;;;3.30;99.90;;;;;;21121589;28;20385;-53
2022/04/27 02:57:43;;;;;;;1.20;0.38;;;3.20;99.90;;;;;;21129078;28;20090;-50
2022/04/27 03:07:45;;;;;;;0.80;0.40;;;3.00;99.90;;;;;;21110961;28;20097;-52
2022/04/27 03:18:16;;;;;;;1.02;0.30;;;2.90;99.90;;;;;;21074696;28;20094;-50
2022/04/27 03:28:12;;;;;;;1.10;0.40;;;2.90;99.90;;;;;;21127431;28;20040;-50
2022/04/27 03:38:18;;;;;;;0.45;0.20;;;3.00;99.90;;;;;;21127066;28;20031;-53
2022/04/27 03:48:23;;;;;;;0.50;0.38;;;2.90;99.90;;;;;;21094971;28;20566;-49
2022/04/27 03:58:26;;;;;;;0.75;0.30;;;2.80;99.90;;;;;;21077396;28;20097;-51
2022/04/27 04:08:28;;;;;;;0.70;0.30;;;2.70;99.90;;;;;;21121553;28;20036;-53
2022/04/27 04:18:32;;;;;;;0.93;0.40;;;2.70;99.90;;;;;;21116230;28;20028;-52
2022/04/27 04:28:51;;;;;;;0.93;0.35;;;2.80;99.90;;;;;;21140109;28;20035;-52
2022/04/27 04:38:55;;;;;;;1.95;0.30;;;3.00;99.90;;;;;;21104854;28;20035;-50
2022/04/27 04:49:00;;;;;;;1.10;0.47;;;3.00;99.90;;;;;;21205663;27;20039;-50
2022/04/27 04:59:41;;;;;;;1.10;0.30;;;2.50;99.90;;;;;;21040727;28;20040;-49
2022/04/27 05:09:50;;;;;;;0.45;0.30;;;2.40;99.90;;;;;;21043865;28;20048;-49
2022/04/27 05:20:15;;;;;;;0.98;0.30;;;2.80;99.90;;;;;;20958920;28;20512;-53
2022/04/27 05:41:18;;;;;;;0.95;0.30;;;3.40;99.90;;;;;;20948978;28;20048;-48
2022/04/27 05:51:41;;;;;;;0.77;0.40;;;3.10;99.90;;;;;;21009769;27;20039;-58
2022/04/27 06:02:11;;;;;;;0.35;0.28;;;2.80;99.90;;;;;;21214653;27;20092;-51
2022/04/27 06:12:13;;;;;;;0.85;0.40;;;3.00;99.90;;;;;;21198977;27;20111;-51
2022/04/27 06:22:22;;;;;;;0.70;0.40;;;3.20;99.90;;;;;;21215848;27;20039;-53
2022/04/27 06:32:25;;;;;;;0.50;0.30;;;3.60;99.90;;;;;;21215245;27;20080;-53
2022/04/27 06:42:35;;;;;;;0.30;0.20;;;7.70;99.90;;;;;;21203945;27;20408;-54
2022/04/27 06:52:59;;;;;;;0.30;0.20;;;10.80;96.40;;;;;;21214319;27;20104;-55
2022/04/27 07:03:21;;;;;;;0.38;0.20;;;10.90;92.00;;;;;;21213416;27;20088;-53
2022/04/27 07:13:24;;;;;;;1.60;0.22;;;10.80;93.00;;;;;;21213000;28;20395;-55
2022/04/27 07:23:26;;;;;;;0.20;0.20;;;11.30;90.80;;;;;;21219026;27;20056;-60
2022/04/27 07:33:29;;;;;;;0.80;0.40;;;11.30;86.60;;;;;;21230419;27;20065;-53
2022/04/27 07:43:31;;;;;;;0.38;0.30;;;11.40;84.40;;;;;;21225338;27;20096;-55
2022/04/27 07:53:34;;;;;;;0.52;0.30;;;11.00;87.80;;;;;;21209568;27;20035;-60
2022/04/27 08:03:37;;;;;;;0.93;0.50;;;11.00;80.80;;;;;;21203943;27;20122;-55
2022/04/27 08:13:40;;;;;;;0.75;0.40;;;11.20;83.60;;;;;;21226813;27;20061;-59
2022/04/27 08:23:44;;;;;;;0.73;0.20;;;11.40;81.60;;;;;;21214156;27;20104;-61
2022/04/27 08:33:46;;;;;;;0.98;0.20;;;11.70;83.70;;;;;;21217671;27;20027;-53
2022/04/27 08:43:49;;;;;;;1.65;0.30;;;11.70;79.30;;;;;;21193970;27;20621;-50
2022/04/27 08:53:51;;;;;;;0.65;0.30;;;12.20;82.80;;;;;;21223143;27;20031;-55
2022/04/27 09:04:15;;;;;;;0.47;0.30;;;13.00;81.90;;;;;;21223048;27;20099;-55
2022/04/27 09:14:17;;;;;;;0.90;0.60;;;12.30;82.50;;;;;;21221949;27;20084;-55
2022/04/27 09:24:20;;;;;;;0.70;0.20;;;12.60;84.00;;;;;;21221253;27;20118;-62
2022/04/27 09:34:29;;;;;;;0.35;0.28;;;14.10;84.10;;;;;;21220593;27;20077;-62
2022/04/27 09:44:34;;;;;;;0.43;0.30;;;13.60;87.30;;;;;;21216308;27;20050;-63
2022/04/27 09:54:39;;;;;;;0.50;0.30;;;14.40;92.30;;;;;;21174778;27;20035;-63
2022/04/27 10:04:45;;;;;;;0.30;0.20;;;15.10;88.00;;;;;;21202494;27;20032;-57
2022/04/27 10:14:47;;;;;;;0.55;0.40;;;15.60;89.10;;;;;;21167291;27;20076;-63
2022/04/27 10:24:51;;;;;;;0.30;0.30;;;14.90;87.70;;;;;;21177158;27;20051;-55
2022/04/27 10:35:12;;;;;;;0.73;0.32;;;14.80;87.00;;;;;;21214756;27;20031;-54
2022/04/27 10:45:23;;;;;;;1.05;0.40;;;14.80;87.60;;;;;;21195383;27;20051;-62
2022/04/27 10:55:35;;;;;;;0.30;0.30;;;14.80;80.70;;;;;;21143214;28;20095;-62
2022/04/27 11:05:39;;;;;;;2.05;0.75;;;15.00;88.00;;;;;;21214305;27;20476;-54
2022/04/27 11:15:44;;;;;;;1.35;0.75;;;15.10;87.00;;;;;;21150012;28;20099;-61
2022/04/27 11:25:51;;;;;;;1.63;0.50;;;15.80;83.80;;;;;;21143698;28;20481;-56
2022/04/27 11:35:54;;;;;;;0.88;0.40;;;16.00;76.50;;;;;;21127866;28;20057;-62
2022/04/27 11:45:57;;;;;;;3.95;2.97;;;16.70;78.40;;;;;;21164584;28;20055;-63
2022/04/27 11:56:01;;;;;;;6.82;3.92;;;17.50;96.20;;;;;;21211472;28;20437;-62
2022/04/27 12:06:05;;;;;;;3.53;2.30;;;17.70;94.10;;;;;;21202742;27;20088;-64
2022/04/27 12:16:09;;;;;;;5.30;3.97;;;17.50;92.10;;;;;;21225797;27;20437;-54
2022/04/27 12:26:11;;;;;;;6.00;3.80;;;16.20;96.90;;;;;;21225543;27;20031;-60
2022/04/27 12:47:08;;;;;;;7.05;5.28;;;15.30;97.70;;;;;;21219294;27;20691;-61
2022/04/27 12:57:11;;;;;;;7.63;4.90;;;14.80;98.40;;;;;;21222245;27;20488;-62
2022/04/27 13:07:13;;;;;;;9.18;6.15;;;14.70;99.90;;;;;;21171749;27;20039;-64
2022/04/27 13:17:16;;;;;;;6.68;4.63;;;16.20;99.90;;;;;;21185544;27;20080;-62
2022/04/27 13:27:21;;;;;;;7.22;5.13;;;15.70;97.90;;;;;;21141470;28;20040;-60
2022/04/27 13:37:24;;;;;;;8.70;5.90;;;14.30;99.90;;;;;;21147611;27;20388;-61
2022/04/27 13:47:28;;;;;;;7.45;5.75;;;14.60;99.90;;;;;;21145484;28;20051;-62
2022/04/27 13:57:30;;;;;;;7.55;5.72;;;15.90;99.90;;;;;;21149933;28;20088;-55
2022/04/27 14:07:35;;;;;;;7.38;5.65;;;16.50;98.00;;;;;;21100380;28;20094;-61
2022/04/27 14:27:59;;;;;;;8.98;6.03;;;15.10;99.90;;;;;;21083491;28;20069;-52
2022/04/27 14:38:03;;;;;;;9.52;6.72;;;15.40;99.90;;;;;;21046925;28;20032;-62
2022/04/27 14:48:07;;;;;;;7.38;5.50;;;15.70;99.90;;;;;;21176031;27;20461;-52
2022/04/27 14:58:10;;;;;;;7.25;5.30;;;15.30;99.90;;;;;;21175132;27;20108;-62
2022/04/27 15:08:13;;;;;;;8.35;6.45;;;14.10;99.90;;;;;;21128812;28;20028;-61
2022/04/27 15:18:18;;;;;;;7.85;5.35;;;14.30;99.90;;;;;;21174645;28;20489;-61
2022/04/27 15:28:20;;;;;;;8.43;6.18;;;14.50;99.90;;;;;;21213359;28;20039;-60
2022/04/27 15:38:24;;;;;;;6.40;5.35;;;13.70;99.90;;;;;;21160097;28;20066;-60
2022/04/27 15:48:27;;;;;;;6.55;5.10;;;12.60;99.90;;;;;;21170088;27;20492;-60
2022/04/27 15:58:31;;;;;;;7.97;5.60;;;12.10;99.90;;;;;;21170881;27;20081;-60
2022/04/27 16:08:34;;;;;;;10.90;6.40;;;11.60;99.90;;;;;;21190870;27;20036;-60
2022/04/27 16:18:37;;;;;;;8.23;6.72;;;11.30;99.90;;;;;;21137595;28;20088;-52
2022/04/27 16:28:40;;;;;;;9.50;6.70;;;11.00;99.90;;;;;;21140460;28;20035;-60
2022/04/27 16:38:43;;;;;;;9.73;6.80;;;10.60;99.90;;;;;;21140033;28;20036;-60
2022/04/27 16:48:46;;;;;;;10.15;7.10;;;10.20;99.90;;;;;;21161166;27;20466;-52
2022/04/27 16:58:49;;;;;;;13.48;7.35;;;10.00;99.90;;;;;;21125578;27;20036;-51
2022/04/27 17:08:52;;;;;;;10.48;7.65;;;9.80;99.90;;;;;;21144346;27;20036;-53
2022/04/27 17:18:59;;;;;;;13.25;8.93;;;9.40;99.90;;;;;;21196626;27;20072;-51
2022/04/27 17:29:03;;;;;;;16.30;9.68;;;9.10;99.90;;;;;;21196483;27;20035;-52
2022/04/27 17:39:06;;;;;;;15.32;10.07;;;8.50;99.90;;;;;;21142651;27;20046;-52
2022/04/27 17:49:09;;;;;;;15.23;10.77;;;7.90;99.90;;;;;;21192623;27;20040;-58
2022/04/27 17:59:12;;;;;;;18.98;12.55;;;7.30;99.90;;;;;;21132992;28;20039;-58
2022/04/27 18:09:15;;;;;;;18.27;11.68;;;6.90;99.90;;;;;;21132103;28;20084;-50
2022/04/27 18:19:19;;;;;;;22.42;11.93;;;6.50;99.90;;;;;;21170527;27;20392;-59
2022/04/27 18:29:23;;;;;;;18.17;12.07;;;6.50;99.90;;;;;;21178085;27;20496;-58
2022/04/27 18:39:25;;;;;;;20.63;12.63;;;6.60;99.90;;;;;;21214989;27;20557;-50
2022/04/27 18:59:50;;;;;;;17.83;11.82;;;6.50;99.90;;;;;;21137510;27;20035;-52
2022/04/27 19:09:53;;;;;;;21.92;13.13;;;7.00;99.90;;;;;;21194057;27;20108;-53
2022/04/27 19:19:56;;;;;;;17.92;12.48;;;7.40;99.90;;;;;;21135523;28;20111;-58
2022/04/27 19:30:00;;;;;;;19.85;11.90;;;7.50;99.90;;;;;;21145439;28;20545;-51
2022/04/27 19:40:05;;;;;;;17.88;11.07;;;7.60;99.90;;;;;;21155392;27;20174;-52
2022/04/27 19:50:08;;;;;;;17.38;11.27;;;7.60;99.90;;;;;;21179563;27;20076;-51
2022/04/27 20:00:15;;;;;;;17.38;11.75;;;7.40;99.90;;;;;;21216701;27;20479;-59
2022/04/27 20:10:18;;;;;;;17.80;12.25;;;7.30;99.90;;;;;;21226921;27;20035;-53
2022/04/27 20:20:21;;;;;;;17.75;12.15;;;7.20;99.90;;;;;;21226025;27;20045;-57
2022/04/27 20:30:26;;;;;;;18.45;12.18;;;7.10;99.90;;;;;;21224142;27;20027;-58
2022/04/27 20:40:30;;;;;;;21.52;13.30;;;7.00;99.90;;;;;;21207845;27;20047;-51
2022/04/27 20:50:33;;;;;;;26.92;15.98;;;6.40;99.90;;;;;;21219822;27;20031;-53
2022/04/27 21:00:36;;;;;;;28.67;18.42;;;5.70;99.90;;;;;;21210182;27;20035;-50
2022/04/27 21:10:38;;;;;;;32.15;18.30;;;5.20;99.90;;;;;;21222059;27;20088;-51
2022/04/27 21:20:41;;;;;;;32.35;19.48;;;5.00;99.90;;;;;;21221354;27;20039;-52
2022/04/27 21:30:45;;;;;;;30.67;17.15;;;4.90;99.90;;;;;;21208053;27;20446;-50
2022/04/27 21:40:49;;;;;;;25.30;15.18;;;5.10;99.90;;;;;;21206443;27;20070;-49
2022/04/27 21:50:53;;;;;;;20.70;12.35;;;5.30;99.90;;;;;;21153527;27;20031;-52
2022/04/27 22:01:12;;;;;;;20.17;10.18;;;5.20;99.90;;;;;;21218095;27;20092;-52
2022/04/27 22:11:14;;;;;;;16.92;10.75;;;4.90;99.90;;;;;;21161208;27;20108;-57
2022/04/27 22:21:18;;;;;;;20.85;11.70;;;4.70;99.90;;;;;;21211649;27;20371;-48
2022/04/27 22:31:22;;;;;;;23.27;13.48;;;4.60;99.90;;;;;;21215257;27;20035;-49
2022/04/27 22:41:24;;;;;;;28.77;15.80;;;4.40;99.90;;;;;;21192707;27;20069;-49
2022/04/27 22:51:27;;;;;;;28.33;17.17;;;4.30;99.90;;;;;;21192288;27;20053;-50
2022/04/27 23:01:31;;;;;;;31.55;17.20;;;4.20;99.90;;;;;;21213775;27;20035;-50
2022/04/27 23:11:33;;;;;;;35.05;19.63;;;4.20;99.90;;;;;;21213383;27;20092;-52
2022/04/27 23:21:36;;;;;;;30.73;16.73;;;4.10;99.90;;;;;;21206460;28;20043;-57
2022/04/27 23:31:39;;;;;;;33.50;19.13;;;4.10;99.90;;;;;;21197107;28;20536;-50
2022/04/27 23:41:41;;;;;;;40.72;21.60;;;4.10;99.90;;;;;;21200713;28;20051;-58
2022/04/27 23:51:44;;;;;;;36.85;19.52;;;4.00;99.90;;;;;;21209783;28;20035;-52
